Bei Facebook empfehlenBei Twitter postenGoogle plusPinterest

Das Wetter im Erzgebirge am 14.08.2015

Wetter und Klima am 14.08.2015 Holzhau im Erzgebirge (630m ü.NN)
Letzte gemessene Temperatur und Uhrzeit der Messung23:45:00 Uhr16.90 °C
Temperatur (Maximum / Höchstwert) und Uhrzeit der Messung16:45:00 Uhr33.10 °C
Temperatur (Minimum / Tiefstwert) und Uhrzeit der Messung23:45:0016.90 °C
Errechneter Absolutwert der Temperaturschwankungen zwischen Tmin und Tmax des Tages16.20 K
Errechnete Tagesmitteltemperatur25.44479 °C
Gesamt - Niederschlag des Tages (in flüssiger Form)3.63 Liter / m²
Luftdruck (Maximum / Höchstwert) und Zeitpunkt der Messung01:00:00 Uhr1015.00 hPa
Luftdruck (Minimum / Tiefstwert) und Zeitpunkt der Messung20:15:00 Uhr1007.60 hPa
Errechneter Absolutwert der Luftdruckschwankungen des Tages7.40 hPa
Höchste gemessene Windgeschwindigkeit und Uhrzeit der Messung23:45:00 Uhr0.00 km/h
Errechnete Windhäufigkeit in Relation zu den Messwerten des Tages0.00000 %
Niedrigste Windkühle (Windchill) und Zeitpunkt der Messung23:45:00 Uhr16.90 °C
Taupunkt (Maximum / Höchstwert) und Uhrzeit der Messung12:30:00 Uhr17.10 °C
Taupunkt (Minimum / Tiefstwert) und Uhrzeit der Messung20:30:0012.60 °C
Anzahl der automatisch eingelesenen Messwerte 96

Detaillierte Wetter- und Klima- Messwerte für den 14.08.2015 in Holzhau im Erzgebirge (630m ü.NN)
ZeitTemperaturLuftdruckRel. LuftfeuchteWindWindrichtungWindchillTaupunktNiederschlag l/m²
23:45:0016.90 °C1008.40 hPa88.00 %14.90 °C3.63
23:30:0017.10 °C1008.30 hPa88.00 %15.10 °C3.63
23:15:0017.10 °C1008.40 hPa87.00 %14.90 °C3.63
23:00:0017.40 °C1008.40 hPa86.00 %15.00 °C3.63
22:45:0017.80 °C1008.40 hPa86.00 %15.40 °C3.63
22:30:0017.90 °C1008.90 hPa86.00 %15.50 °C3.63
22:15:0018.10 °C1008.90 hPa84.00 %15.40 °C3.63
22:00:0018.30 °C1008.70 hPa82.00 %15.20 °C3.63
21:45:0018.50 °C1008.80 hPa79.00 %14.80 °C3.63
21:30:0018.90 °C1009.10 hPa76.00 %14.60 °C3.11
21:15:0019.90 °C1009.20 hPa68.00 %13.80 °C1.04
21:00:0024.10 °C1008.90 hPa52.00 %13.60 °C0.52
20:45:0025.90 °C1008.20 hPa45.00 %13.10 °C 
20:30:0025.40 °C1007.90 hPa45.00 %12.60 °C 
20:15:0026.30 °C1007.60 hPa46.00 %13.80 °C 
20:00:0027.50 °C1007.70 hPa44.00 %14.20 °C 
19:45:0028.80 °C1007.80 hPa40.00 %13.90 °C 
19:30:0029.90 °C1008.00 hPa39.00 %14.40 °C 
19:15:0030.50 °C1008.10 hPa36.00 %13.70 °C 
19:00:0031.10 °C1007.80 hPa33.00 %12.90 °C 
18:45:0031.50 °C1007.90 hPa32.00 %12.80 °C 
18:30:0032.20 °C1008.00 hPa32.00 %13.40 °C 
18:15:0032.40 °C1008.10 hPa32.00 %13.60 °C 
18:00:0032.30 °C1008.20 hPa33.00 %14.00 °C 
17:45:0032.40 °C1008.40 hPa33.00 %14.10 °C 
17:30:0032.70 °C1008.50 hPa34.00 %14.80 °C 
17:15:0032.30 °C1008.60 hPa34.00 %14.40 °C 
17:00:0032.90 °C1008.90 hPa34.00 %15.00 °C 
16:45:0033.10 °C1009.10 hPa35.00 %15.60 °C 
16:30:0032.80 °C1009.10 hPa35.00 %15.30 °C 
16:15:0032.90 °C1009.40 hPa36.00 %15.80 °C 
16:00:0032.80 °C1009.50 hPa36.00 %15.80 °C 
15:45:0032.20 °C1009.90 hPa36.00 %15.20 °C 
15:30:0032.10 °C1010.00 hPa36.00 %15.10 °C 
15:15:0032.10 °C1010.30 hPa36.00 %15.10 °C 
15:00:0032.10 °C1010.40 hPa36.00 %15.10 °C 
14:45:0032.20 °C1010.60 hPa37.00 %15.70 °C 
14:30:0031.80 °C1010.60 hPa37.00 %15.30 °C 
14:15:0031.50 °C1011.10 hPa38.00 %15.50 °C 
14:00:0031.40 °C1010.90 hPa40.00 %16.20 °C 
13:45:0031.10 °C1011.00 hPa41.00 %16.30 °C 
13:30:0031.10 °C1011.20 hPa41.00 %16.30 °C 
13:15:0031.40 °C1011.00 hPa41.00 %16.60 °C 
13:00:0031.30 °C1011.10 hPa41.00 %16.50 °C 
12:45:0031.30 °C1011.20 hPa41.00 %16.50 °C 
12:30:0030.80 °C1011.30 hPa44.00 %17.10 °C 
12:15:0029.70 °C1011.20 hPa46.00 %16.80 °C 
12:00:0029.20 °C1011.60 hPa45.00 %16.00 °C 
11:45:0029.10 °C1011.80 hPa46.00 %16.30 °C 
11:30:0029.10 °C1011.70 hPa46.00 %16.30 °C 
11:15:0028.60 °C1011.80 hPa47.00 %16.20 °C 
11:00:0028.10 °C1011.90 hPa50.00 %16.70 °C 
10:45:0027.50 °C1012.00 hPa50.00 %16.10 °C 
10:30:0027.30 °C1011.90 hPa51.00 %16.30 °C 
10:15:0027.10 °C1011.90 hPa51.00 %16.10 °C 
10:00:0026.50 °C1012.00 hPa52.00 %15.80 °C 
09:45:0026.30 °C1011.90 hPa54.00 %16.30 °C 
09:30:0025.30 °C1012.10 hPa56.00 %15.90 °C 
09:15:0024.70 °C1012.10 hPa57.00 %15.60 °C 
09:00:0024.30 °C1012.20 hPa57.00 %15.20 °C 
08:45:0024.20 °C1012.30 hPa57.00 %15.10 °C 
08:30:0024.20 °C1012.10 hPa57.00 %15.10 °C 
08:15:0023.60 °C1012.10 hPa59.00 %15.10 °C 
08:00:0022.90 °C1012.20 hPa61.00 %15.00 °C 
07:45:0022.10 °C1012.30 hPa63.00 %14.70 °C 
07:30:0021.30 °C1012.40 hPa66.00 %14.70 °C 
07:15:0020.80 °C1012.40 hPa66.00 %14.20 °C 
07:00:0020.60 °C1012.50 hPa66.00 %14.00 °C 
06:45:0020.60 °C1012.70 hPa65.00 %13.80 °C 
06:30:0020.80 °C1012.70 hPa65.00 %14.00 °C 
06:15:0020.70 °C1012.70 hPa66.00 %14.10 °C 
06:00:0020.50 °C1012.80 hPa66.00 %13.90 °C 
05:45:0020.50 °C1012.80 hPa66.00 %13.90 °C 
05:30:0020.70 °C1012.80 hPa65.00 %13.90 °C 
05:15:0020.60 °C1012.80 hPa66.00 %14.00 °C 
05:00:0020.90 °C1012.80 hPa65.00 %14.10 °C 
04:45:0020.90 °C1012.80 hPa65.00 %14.10 °C 
04:30:0021.30 °C1012.90 hPa65.00 %14.50 °C 
04:15:0021.40 °C1013.30 hPa65.00 %14.60 °C 
04:00:0021.30 °C1013.50 hPa66.00 %14.70 °C 
03:45:0021.40 °C1013.60 hPa65.00 %14.60 °C 
03:30:0021.70 °C1013.70 hPa65.00 %14.80 °C 
03:15:0021.90 °C1013.90 hPa65.00 %15.00 °C 
03:00:0021.80 °C1013.90 hPa65.00 %14.90 °C 
02:45:0021.60 °C1013.90 hPa66.00 %15.00 °C 
02:30:0021.60 °C1014.10 hPa67.00 %15.20 °C 
02:15:0021.50 °C1014.20 hPa67.00 %15.10 °C 
02:00:0021.80 °C1014.40 hPa67.00 %15.40 °C 
01:45:0021.90 °C1014.60 hPa66.00 %15.30 °C 
01:30:0021.90 °C1014.70 hPa67.00 %15.50 °C 
01:15:0022.10 °C1014.70 hPa67.00 %15.70 °C 
01:00:0021.90 °C1015.00 hPa68.00 %15.70 °C 
00:45:0022.10 °C1014.90 hPa67.00 %15.70 °C 
00:30:0022.20 °C1014.90 hPa67.00 %15.80 °C 
00:15:0022.30 °C1014.90 hPa68.00 %16.10 °C 
00:00:0022.20 °C1014.70 hPa68.00 %16.00 °C 

Permanenter Link zu dieser Seite: Wetter im Erzgebirge am 14.08.2015
Performance-Info: Die Erstellung der Seite / Statistik(en) / Tabelle(n) erforderte 5 Datenbankserver-Abfrage(n) und dauerte 100 Millisekunden. (Dieser Messwert ist von der Gesamt-Auslastung des Servers abhängig.)
Erzgebirge - Wetter | Erzgebirge - Wetter (Mobilgeräte) | Komplette Klimadatenbank